Time;durP1;ratioP1;P1;durP2;ratioP2;P2;SDS_P1;SDS_P2;PMS_P1;PMS_P2;Temp;Humidity;BMP_temperature;BMP_pressure;BME280_temperature;BME280_humidity;BME280_pressure;Samples;Min_cycle;Max_cycle;Signal;HPM_P1;HPM_P2
2022/12/30 00:00:21;;;;;;;16.48;10.02;;;;;;;13.43;46.35;93067.63;4935638;28;20434;-92
2022/12/30 00:02:46;;;;;;;15.18;10.10;;;;;;;13.43;46.51;93069.59;4952894;28;20051;-88
2022/12/30 00:05:12;;;;;;;13.60;9.73;;;;;;;13.41;45.91;93064.66;4936526;28;20047;-92
2022/12/30 00:07:37;;;;;;;15.02;9.80;;;;;;;13.41;46.21;93072.06;4952809;28;20038;-88
2022/12/30 00:10:03;;;;;;;13.43;9.50;;;;;;;13.43;46.28;93075.75;4952199;28;20049;-88
2022/12/30 00:34:55;;;;;;;12.18;8.82;;;;;;;13.40;46.31;93111.31;4955366;28;20066;-89
2022/12/30 00:37:20;;;;;;;16.17;10.30;;;;;;;13.37;46.46;93100.19;4952095;28;20392;-90
2022/12/30 00:39:46;;;;;;;13.50;10.00;;;;;;;13.37;46.74;93113.75;4968457;28;20035;-90
2022/12/30 00:44:55;;;;;;;12.05;9.00;;;;;;;13.38;46.73;93114.50;4955557;28;20049;-95
2022/12/30 00:47:21;;;;;;;15.63;9.25;;;;;;;13.40;46.20;93105.88;4934141;28;20134;-92
2022/12/30 00:57:59;;;;;;;12.48;8.70;;;;;;;13.41;46.56;93120.94;4956230;28;20050;-92
2022/12/30 01:00:24;;;;;;;14.90;9.00;;;;;;;13.40;46.54;93131.06;4955610;28;20035;-88
2022/12/30 01:02:49;;;;;;;14.73;9.00;;;;;;;13.38;46.52;93139.69;4955318;28;20396;-91
2022/12/30 01:05:15;;;;;;;18.83;9.02;;;;;;;13.38;46.56;93139.69;4954912;28;20046;-92
2022/12/30 01:07:40;;;;;;;15.27;8.82;;;;;;;13.38;46.35;93139.69;4955873;28;20143;-89
2022/12/30 01:10:06;;;;;;;16.52;8.88;;;;;;;13.38;46.83;93136.97;4955880;28;20039;-89
2022/12/30 01:12:31;;;;;;;15.15;9.45;;;;;;;13.40;46.47;93150.06;4955764;28;20035;-89
2022/12/30 01:14:58;;;;;;;13.15;8.77;;;;;;;13.42;46.71;93139.47;4956090;28;20110;-88
2022/12/30 01:17:26;;;;;;;13.32;9.35;;;;;;;13.43;46.48;93149.06;4952326;28;20036;-90
2022/12/30 01:19:51;;;;;;;14.27;9.13;;;;;;;13.43;46.43;93151.03;4956205;28;20046;-88
2022/12/30 01:22:17;;;;;;;14.15;9.25;;;;;;;13.42;46.57;93155.75;4935174;28;20051;-88
2022/12/30 01:24:42;;;;;;;12.38;8.98;;;;;;;13.40;46.28;93157.47;4987815;28;20047;-88
2022/12/30 01:27:08;;;;;;;14.35;8.50;;;;;;;13.41;46.86;93172.53;4955036;28;20050;-89
2022/12/30 01:29:38;;;;;;;14.18;9.55;;;;;;;13.42;46.62;93168.59;4954280;28;20070;-90
2022/12/30 01:32:06;;;;;;;13.07;8.93;;;;;;;13.41;46.40;93167.84;4935790;28;20176;-88
2022/12/30 01:34:32;;;;;;;13.30;9.13;;;;;;;13.41;46.07;93167.84;4939506;28;20050;-89
2022/12/30 01:36:57;;;;;;;13.63;9.60;;;;;;;13.41;46.64;93167.09;4955505;28;20038;-92
2022/12/30 01:39:23;;;;;;;12.30;8.00;;;;;;;13.42;46.40;93179.44;4954877;28;20417;-90
2022/12/30 01:41:48;;;;;;;12.13;8.95;;;;;;;13.40;46.76;93181.91;4951363;28;20091;-89
2022/12/30 01:44:51;;;;;;;13.07;8.48;;;;;;;13.40;46.55;93179.91;4970392;28;20039;-91
2022/12/30 01:47:43;;;;;;;12.40;7.75;;;;;;;13.42;46.54;93187.59;4971972;28;20051;-92
2022/12/30 01:50:09;;;;;;;19.30;9.52;;;;;;;13.40;47.01;93181.91;4956638;28;20031;-89
2022/12/30 01:52:34;;;;;;;13.98;9.38;;;;;;;13.40;46.52;93185.34;4970014;28;20069;-88
2022/12/30 01:55:03;;;;;;;14.35;8.57;;;;;;;13.42;46.55;93185.63;4955352;28;20031;-91
2022/12/30 01:57:29;;;;;;;11.68;9.00;;;;;;;13.37;46.96;93189.78;4970777;28;20053;-91
2022/12/30 01:59:54;;;;;;;13.93;8.85;;;;;;;13.41;46.45;93183.38;4954881;28;20050;-89
2022/12/30 02:02:20;;;;;;;12.55;8.77;;;;;;;13.40;46.79;93192.75;4953752;28;20050;-89
2022/12/30 02:04:45;;;;;;;14.32;8.55;;;;;;;13.41;46.61;93199.69;4951760;28;20047;-89
2022/12/30 02:07:18;;;;;;;13.90;9.57;;;;;;;13.39;46.59;93205.59;4953979;28;20113;-88
2022/12/30 02:09:44;;;;;;;13.35;8.30;;;;;;;13.38;46.66;93202.13;4954855;28;20046;-91
2022/12/30 02:12:11;;;;;;;13.50;8.75;;;;;;;13.40;46.78;93193.50;4937601;28;20526;-88
2022/12/30 02:14:37;;;;;;;11.90;8.48;;;;;;;13.43;46.86;93205.34;4939050;28;20177;-88
2022/12/30 02:17:27;;;;;;;12.82;7.95;;;;;;;13.44;46.63;93202.13;4953863;28;20073;-89
2022/12/30 02:20:17;;;;;;;11.93;8.38;;;;;;;13.42;46.61;93195.72;4969978;28;20061;-90
2022/12/30 02:23:17;;;;;;;11.13;8.50;;;;;;;13.42;46.53;93193.03;4970756;28;20508;-90
2022/12/30 02:26:19;;;;;;;12.80;8.57;;;;;;;13.40;46.96;93212.50;4970472;28;20050;-89
2022/12/30 02:28:54;;;;;;;11.52;8.30;;;;;;;13.41;46.47;93208.56;4969605;28;20066;-92
2022/12/30 02:31:27;;;;;;;14.38;8.77;;;;;;;13.38;46.88;93198.66;4971183;28;20043;-90
2022/12/30 02:34:05;;;;;;;12.50;8.65;;;;;;;13.38;46.60;93212.97;4970520;28;20505;-88
2022/12/30 02:36:39;;;;;;;11.32;8.30;;;;;;;13.39;46.60;93205.59;4969931;28;20047;-93
2022/12/30 02:39:29;;;;;;;12.95;8.02;;;;;;;13.42;46.77;93214.75;4954580;28;20054;-89
2022/12/30 02:44:51;;;;;;;11.10;8.20;;;;;;;13.40;46.70;93219.91;4970261;28;20154;-88
2022/12/30 02:47:25;;;;;;;12.30;8.25;;;;;;;13.40;46.78;93219.91;4954434;28;20055;-88
2022/12/30 02:52:46;;;;;;;12.90;8.13;;;;;;;13.42;46.61;93223.63;4940049;28;20093;-89
2022/12/30 02:55:13;;;;;;;12.80;8.68;;;;;;;13.44;46.89;93223.13;4952982;28;20499;-88
2022/12/30 02:57:38;;;;;;;12.68;8.00;;;;;;;13.43;47.01;93222.38;4954130;28;20074;-90
2022/12/30 03:06:08;;;;;;;12.95;7.90;;;;;;;13.41;46.87;93248.53;4948823;28;20630;-87
2022/12/30 03:08:34;;;;;;;13.13;8.75;;;;;;;13.40;47.10;93253.22;4948521;28;20036;-88
2022/12/30 03:11:12;;;;;;;15.30;8.50;;;;;;;13.41;46.85;93253.97;4949052;28;20131;-89
2022/12/30 03:14:07;;;;;;;15.40;8.77;;;;;;;13.40;46.91;93247.06;4933551;29;20035;-88
2022/12/30 03:16:45;;;;;;;10.48;7.82;;;;;;;13.38;46.70;93251.00;4916966;29;20464;-89
2022/12/30 03:19:14;;;;;;;12.23;8.00;;;;;;;13.41;46.68;93254.72;4932287;28;20050;-88
2022/12/30 03:21:40;;;;;;;14.35;8.57;;;;;;;13.37;47.00;93263.06;4932324;29;20050;-93
2022/12/30 03:27:05;;;;;;;11.02;7.68;;;;;;;13.37;46.80;93265.06;4934575;29;20106;-89
2022/12/30 03:29:56;;;;;;;12.38;7.85;;;;;;;13.41;46.90;93268.28;4917609;29;20043;-89
2022/12/30 03:32:21;;;;;;;14.15;7.68;;;;;;;13.40;46.99;93261.38;4932229;28;20055;-88
2022/12/30 03:34:47;;;;;;;12.73;7.95;;;;;;;13.40;46.64;93264.09;4915946;29;20394;-91
2022/12/30 03:37:18;;;;;;;14.45;7.57;;;;;;;13.41;46.78;93270.25;4932028;28;20051;-90
2022/12/30 03:40:17;;;;;;;10.35;7.32;;;;;;;13.42;47.00;93272.50;4933041;29;20417;-88
2022/12/30 03:42:43;;;;;;;13.90;8.93;;;;;;;13.42;46.64;93269.03;4937650;28;20035;-90
2022/12/30 03:45:09;;;;;;;11.25;7.50;;;;;;;13.38;47.12;93269.25;4952573;28;20035;-89
2022/12/30 03:47:34;;;;;;;12.20;8.20;;;;;;;13.38;47.20;93264.56;4953329;28;20049;-89
2022/12/30 03:50:00;;;;;;;12.88;8.13;;;;;;;13.39;46.90;93270.75;4936825;28;20092;-89
2022/12/30 03:52:25;;;;;;;13.73;8.85;;;;;;;13.37;47.08;93276.66;4952282;28;20038;-90
2022/12/30 03:54:51;;;;;;;13.85;8.13;;;;;;;13.37;46.87;93270.47;4952776;28;20047;-95
2022/12/30 03:57:17;;;;;;;10.90;8.38;;;;;;;13.39;47.15;93278.88;4968238;28;20054;-88
2022/12/30 03:59:42;;;;;;;11.10;7.88;;;;;;;13.37;46.87;93276.66;4937357;28;20069;-90
2022/12/30 04:02:08;;;;;;;12.93;8.25;;;;;;;13.38;46.71;93272.72;4952082;28;20508;-90
2022/12/30 04:04:33;;;;;;;10.55;7.18;;;;;;;13.38;47.02;93286.28;4951968;28;20123;-88
2022/12/30 04:06:59;;;;;;;11.90;8.18;;;;;;;13.39;46.98;93270.75;4952475;28;20035;-88
2022/12/30 04:09:24;;;;;;;12.98;8.07;;;;;;;13.38;46.98;93283.56;4932596;28;20078;-88
2022/12/30 04:11:49;;;;;;;10.15;7.13;;;;;;;13.40;46.77;93288.53;4968647;28;20500;-92
2022/12/30 04:14:15;;;;;;;12.13;8.30;;;;;;;13.40;47.04;93285.81;4951859;28;20039;-89
2022/12/30 04:16:40;;;;;;;13.20;7.78;;;;;;;13.41;47.12;93305.56;4936448;28;20066;-89
2022/12/30 04:19:06;;;;;;;11.57;7.90;;;;;;;13.39;47.12;93295.19;4951395;28;20086;-90
2022/12/30 04:21:31;;;;;;;11.13;8.25;;;;;;;13.43;46.77;93303.09;4952650;28;20551;-89
2022/12/30 04:23:57;;;;;;;11.40;7.32;;;;;;;13.38;47.02;93308.00;4952050;28;20042;-92
2022/12/30 04:26:22;;;;;;;13.60;8.55;;;;;;;13.41;46.76;93308.28;4967627;28;20375;-88
2022/12/30 04:28:48;;;;;;;11.85;7.97;;;;;;;13.41;47.04;93319.88;4935155;28;20046;-89
2022/12/30 04:31:13;;;;;;;14.35;7.93;;;;;;;13.42;46.69;93315.94;4935965;28;20051;-90
2022/12/30 04:33:39;;;;;;;11.13;7.35;;;;;;;13.39;46.83;93319.63;4939580;28;20479;-89
2022/12/30 04:36:04;;;;;;;13.32;8.13;;;;;;;13.40;46.79;93334.69;4955940;28;20047;-91
2022/12/30 04:38:30;;;;;;;12.45;8.18;;;;;;;13.41;47.11;93335.44;4940249;28;20035;-93
2022/12/30 04:40:55;;;;;;;13.18;8.05;;;;;;;13.41;46.85;93330.75;4956320;28;20055;-90
2022/12/30 04:43:21;;;;;;;10.60;7.70;;;;;;;13.41;47.11;93330.75;4955804;28;20035;-88
2022/12/30 04:45:46;;;;;;;11.32;7.60;;;;;;;13.40;47.24;93323.81;4970156;28;20051;-90
2022/12/30 04:48:11;;;;;;;13.65;8.32;;;;;;;13.40;46.59;93331.97;4936402;28;20131;-94
2022/12/30 04:50:41;;;;;;;11.40;7.57;;;;;;;13.44;47.01;93334.44;4968309;28;20090;-92
2022/12/30 04:53:06;;;;;;;12.45;8.13;;;;;;;13.42;47.08;93334.19;4939809;28;20473;-93
2022/12/30 04:55:32;;;;;;;10.77;7.63;;;;;;;13.40;46.99;93337.41;4943031;28;20047;-91
2022/12/30 04:57:57;;;;;;;9.27;6.95;;;;;;;13.40;47.20;93342.81;4956218;28;20074;-92
2022/12/30 05:00:23;;;;;;;11.55;7.72;;;;;;;13.40;47.03;93340.13;4952463;28;20047;-89
2022/12/30 05:02:48;;;;;;;10.48;7.40;;;;;;;13.42;46.95;93347.78;4952398;28;20098;-88
2022/12/30 05:05:13;;;;;;;11.85;7.65;;;;;;;13.40;47.09;93339.38;4978828;28;20093;-90
2022/12/30 05:07:39;;;;;;;11.50;7.13;;;;;;;13.39;46.94;93346.75;4939856;28;20031;-94
2022/12/30 05:10:05;;;;;;;11.23;7.28;;;;;;;13.41;47.11;93354.44;4939671;28;20489;-90
2022/12/30 05:12:30;;;;;;;9.77;6.78;;;;;;;13.41;47.05;93357.91;4972448;28;20039;-88
2022/12/30 05:14:55;;;;;;;11.05;8.30;;;;;;;13.40;47.20;93361.09;4939607;28;20053;-88
2022/12/30 05:17:21;;;;;;;11.13;7.55;;;;;;;13.40;46.85;93366.50;4937071;28;20051;-88
2022/12/30 05:19:46;;;;;;;13.52;8.50;;;;;;;13.40;46.83;93361.09;4971828;28;20464;-93
2022/12/30 05:22:13;;;;;;;11.45;7.82;;;;;;;13.38;47.11;93365.03;4939277;28;20043;-89
2022/12/30 05:27:22;;;;;;;13.52;8.05;;;;;;;13.41;47.03;93393.19;4970761;28;20524;-90
2022/12/30 05:29:47;;;;;;;9.80;7.10;;;;;;;13.43;46.92;93393.44;4939441;28;20054;-88
2022/12/30 05:32:13;;;;;;;10.07;7.10;;;;;;;13.41;47.22;93400.59;4951288;28;20039;-87
2022/12/30 05:34:38;;;;;;;10.55;7.78;;;;;;;13.40;46.80;93408.00;4957014;28;20039;-92
2022/12/30 05:37:03;;;;;;;11.73;8.05;;;;;;;13.40;47.01;93415.38;4939043;28;20043;-91
2022/12/30 05:39:29;;;;;;;9.68;6.88;;;;;;;13.40;47.20;93407.25;4955531;28;20722;-93
2022/12/30 05:41:54;;;;;;;12.43;7.88;;;;;;;13.42;46.90;93402.09;4939597;28;20039;-90
2022/12/30 05:44:22;;;;;;;9.10;7.07;;;;;;;13.41;47.29;93412.19;4970144;28;20055;-91
2022/12/30 05:46:47;;;;;;;10.55;7.03;;;;;;;13.40;47.19;93416.13;4935514;29;20550;-88
2022/12/30 05:49:13;;;;;;;10.52;7.32;;;;;;;13.38;47.27;93419.31;4970966;28;20039;-91
2022/12/30 05:51:38;;;;;;;10.07;7.47;;;;;;;13.38;47.20;93422.03;4955027;28;20043;-92
2022/12/30 05:54:03;;;;;;;10.13;7.40;;;;;;;13.39;47.21;93425.50;4970650;28;20030;-92
2022/12/30 05:56:29;;;;;;;10.10;7.60;;;;;;;13.38;47.41;93434.88;4986534;28;20050;-89
2022/12/30 05:58:55;;;;;;;11.27;7.82;;;;;;;13.41;47.41;93419.59;4955218;28;20042;-89
2022/12/30 06:01:20;;;;;;;10.10;7.20;;;;;;;13.41;47.10;93420.34;4954149;28;20047;-91
2022/12/30 06:03:45;;;;;;;11.00;7.72;;;;;;;13.38;47.50;93424.75;4954899;28;20046;-88
2022/12/30 06:06:11;;;;;;;10.55;7.25;;;;;;;13.35;47.35;93414.84;4953417;28;20146;-89
2022/12/30 06:08:36;;;;;;;10.18;7.32;;;;;;;13.35;47.48;93424.97;4972055;28;20140;-89
2022/12/30 06:11:02;;;;;;;212.57;163.73;;;;;;;13.46;47.52;93427.78;4939279;28;20050;-90
2022/12/30 06:13:27;;;;;;;320.33;247.80;;;;;;;13.55;47.32;93424.19;4957379;28;20051;-92
2022/12/30 06:15:53;;;;;;;15.70;10.63;;;;;;;13.57;47.23;93425.19;4960346;28;20050;-88
2022/12/30 06:18:18;;;;;;;11.93;7.85;;;;;;;13.56;47.18;93433.81;4953309;28;20070;-90
2022/12/30 06:20:44;;;;;;;10.43;7.85;;;;;;;13.62;47.25;93435.38;4970911;28;20050;-87
2022/12/30 06:23:09;;;;;;;52.15;34.70;;;;;;;13.59;47.41;93443.72;4954475;28;20440;-89
2022/12/30 06:25:35;;;;;;;32.15;23.83;;;;;;;13.58;47.12;93440.25;4952122;28;20054;-87
2022/12/30 06:28:00;;;;;;;32.60;24.48;;;;;;;13.60;47.19;93447.94;4952379;28;20047;-90
2022/12/30 06:30:26;;;;;;;22.15;14.98;;;;;;;13.61;47.28;93455.59;4951657;28;20054;-88
2022/12/30 06:32:54;;;;;;;77.30;37.05;;;;;;;13.61;46.93;93449.44;4949831;29;20094;-89
2022/12/30 06:35:19;;;;;;;15.27;9.75;;;;;;;13.66;47.01;93448.72;4958483;28;20066;-88
2022/12/30 06:37:44;;;;;;;15.02;10.35;;;;;;;13.64;47.19;93451.91;4937395;28;20081;-89
2022/12/30 06:40:10;;;;;;;43.85;32.17;;;;;;;13.63;47.03;93455.88;4934187;28;20043;-87
2022/12/30 06:42:36;;;;;;;14.18;10.07;;;;;;;13.59;47.27;93460.03;4949005;28;20042;-90
2022/12/30 06:45:01;;;;;;;15.38;10.18;;;;;;;13.59;46.89;93471.63;4974650;28;20046;-88
2022/12/30 06:47:27;;;;;;;12.77;9.05;;;;;;;13.58;46.92;93467.44;4972008;28;20042;-90
2022/12/30 06:49:52;;;;;;;13.57;10.30;;;;;;;13.52;47.21;93474.75;4954875;28;20078;-88
2022/12/30 06:52:17;;;;;;;15.48;9.88;;;;;;;13.48;47.28;93471.50;4951076;28;20035;-94
2022/12/30 06:54:43;;;;;;;16.92;10.57;;;;;;;13.48;47.12;93460.63;4973892;28;20038;-89
2022/12/30 06:57:08;;;;;;;15.23;10.07;;;;;;;13.48;47.15;93470.75;4954637;28;20101;-89
2022/12/30 06:59:34;;;;;;;14.13;10.90;;;;;;;13.45;47.30;93464.31;4956121;28;20039;-89
2022/12/30 07:01:59;;;;;;;14.40;9.95;;;;;;;13.49;47.19;93480.41;4955353;28;20114;-88
2022/12/30 07:04:25;;;;;;;15.40;10.50;;;;;;;13.49;47.41;93489.28;4955881;28;20053;-92
2022/12/30 07:06:51;;;;;;;15.77;10.00;;;;;;;13.50;47.28;93493.50;4966333;28;20047;-91
2022/12/30 07:09:17;;;;;;;18.50;10.43;;;;;;;13.48;47.10;93487.78;4972018;28;20035;-92
2022/12/30 07:11:42;;;;;;;15.45;10.95;;;;;;;13.48;47.00;93487.03;4973930;28;20035;-92
2022/12/30 07:14:08;;;;;;;14.43;10.30;;;;;;;13.45;46.95;93490.72;4957410;28;20504;-89
2022/12/30 07:16:33;;;;;;;34.65;22.33;;;;;;;13.49;47.06;93477.69;4955983;28;20043;-93
2022/12/30 07:18:59;;;;;;;15.48;10.80;;;;;;;13.48;47.29;93476.94;4952568;28;20083;-91
2022/12/30 07:21:25;;;;;;;14.60;10.95;;;;;;;13.49;47.18;93475.72;4937017;28;20042;-92
2022/12/30 07:23:51;;;;;;;13.43;10.23;;;;;;;13.45;47.32;93477.13;4956919;28;20058;-90
2022/12/30 07:26:16;;;;;;;13.00;10.18;;;;;;;13.48;46.87;93468.03;4961898;28;20042;-93
2022/12/30 07:28:41;;;;;;;15.15;10.70;;;;;;;13.43;47.20;93469.47;4937225;28;20042;-90
2022/12/30 07:31:07;;;;;;;22.25;10.68;;;;;;;13.46;47.02;93481.34;4923967;28;20477;-91
2022/12/30 07:33:33;;;;;;;18.00;11.18;;;;;;;13.42;47.38;93484.28;4951398;28;20564;-92
2022/12/30 07:35:59;;;;;;;15.88;10.90;;;;;;;13.44;47.18;93495.41;4950456;28;20074;-90
2022/12/30 07:38:24;;;;;;;16.20;11.75;;;;;;;13.43;47.22;93493.91;4929966;28;20038;-90
2022/12/30 07:40:49;;;;;;;18.25;11.48;;;;;;;13.45;47.43;93488.00;4921813;28;20054;-89
2022/12/30 07:43:15;;;;;;;15.05;11.38;;;;;;;13.47;47.20;93496.41;4928321;28;20043;-92
2022/12/30 07:45:41;;;;;;;16.27;10.95;;;;;;;13.45;47.52;93493.44;4941045;28;20031;-94
2022/12/30 07:48:07;;;;;;;15.88;11.02;;;;;;;13.50;47.36;93492.75;4938520;28;20043;-89
2022/12/30 07:50:32;;;;;;;17.73;10.50;;;;;;;13.46;47.41;93497.63;4922119;28;20086;-91
2022/12/30 07:52:58;;;;;;;288.60;230.75;;;;;;;13.52;47.31;93499.19;4930295;28;20043;-87
2022/12/30 07:55:25;;;;;;;61.72;47.58;;;;;;;13.55;47.17;93497.50;4945126;28;20039;-92
2022/12/30 07:57:50;;;;;;;16.60;11.73;;;;;;;13.55;46.96;93502.94;4921560;29;20040;-91
2022/12/30 08:00:16;;;;;;;16.80;12.07;;;;;;;13.52;47.03;93501.91;4904770;28;20062;-90
2022/12/30 08:02:41;;;;;;;14.93;11.43;;;;;;;13.49;47.04;93511.00;4947982;28;20508;-91
2022/12/30 08:05:07;;;;;;;16.95;11.63;;;;;;;13.50;47.34;93509.03;4953757;28;20097;-91
2022/12/30 08:07:33;;;;;;;21.00;11.90;;;;;;;13.51;47.53;93511.28;4953019;28;20058;-90
2022/12/30 08:09:59;;;;;;;15.60;11.18;;;;;;;13.50;47.17;93512.50;4938569;28;20497;-91
2022/12/30 08:12:24;;;;;;;15.52;11.15;;;;;;;13.51;47.33;93505.84;4953308;28;20046;-89
2022/12/30 08:14:50;;;;;;;26.45;19.95;;;;;;;13.58;47.45;93508.16;4971820;28;20053;-89
2022/12/30 08:17:15;;;;;;;67.53;52.20;;;;;;;13.54;47.12;93506.88;4955294;28;20038;-89
2022/12/30 08:19:40;;;;;;;57.63;38.15;;;;;;;13.55;47.33;93506.41;4953466;28;20042;-89
2022/12/30 08:22:06;;;;;;;18.30;12.35;;;;;;;13.50;47.32;93500.91;4954510;28;20260;-88
2022/12/30 08:24:31;;;;;;;20.20;13.07;;;;;;;13.50;47.55;93495.47;4956009;28;20053;-90
2022/12/30 08:26:57;;;;;;;19.35;12.48;;;;;;;13.52;47.01;93512.03;4955105;28;20527;-90
2022/12/30 08:29:23;;;;;;;17.38;12.45;;;;;;;13.50;47.39;93509.78;4969349;28;20400;-89
2022/12/30 08:31:49;;;;;;;21.90;12.93;;;;;;;13.51;47.47;93507.81;4954262;28;20499;-88
2022/12/30 08:34:18;;;;;;;19.73;13.25;;;;;;;13.49;47.25;93505.59;4956043;28;20055;-91
2022/12/30 08:36:44;;;;;;;21.00;13.90;;;;;;;13.51;47.43;93507.81;4956782;28;20031;-89
2022/12/30 08:39:09;;;;;;;16.55;12.57;;;;;;;13.49;47.58;93511.00;4935193;28;20054;-89
2022/12/30 08:41:36;;;;;;;19.90;14.05;;;;;;;13.51;47.55;93511.28;4969491;28;20126;-89
2022/12/30 08:44:02;;;;;;;18.88;13.45;;;;;;;13.52;47.26;93518.22;4954959;28;20047;-88
2022/12/30 08:46:29;;;;;;;19.75;13.15;;;;;;;13.53;47.11;93518.97;4974890;28;20047;-90
2022/12/30 08:48:54;;;;;;;17.38;12.13;;;;;;;13.52;47.95;93522.91;4949376;28;20606;-90
2022/12/30 08:51:20;;;;;;;17.95;12.85;;;;;;;13.48;47.40;93531.25;4936356;28;20040;-93
2022/12/30 08:53:45;;;;;;;16.90;12.68;;;;;;;13.49;47.28;93527.31;4981486;28;20166;-91
2022/12/30 08:56:16;;;;;;;16.73;12.63;;;;;;;13.49;47.42;93524.59;4955397;28;20223;-89
2022/12/30 08:58:42;;;;;;;17.05;11.80;;;;;;;13.48;47.10;93531.25;4946658;28;20535;-92
2022/12/30 09:01:08;;;;;;;18.02;12.18;;;;;;;13.49;47.51;93535.44;4939890;28;20047;-88
2022/12/30 09:03:33;;;;;;;21.20;13.45;;;;;;;13.48;47.12;93530.50;4973176;28;20496;-90
2022/12/30 09:05:59;;;;;;;18.00;12.20;;;;;;;13.49;47.42;93540.88;4972103;28;20061;-92
2022/12/30 09:08:24;;;;;;;18.92;12.70;;;;;;;13.49;47.35;93535.44;4964897;28;20425;-89
2022/12/30 09:11:04;;;;;;;20.77;12.82;;;;;;;13.53;47.54;93544.16;4971246;28;20049;-89
2022/12/30 09:13:29;;;;;;;20.00;13.40;;;;;;;13.50;47.53;93549.78;4959456;28;20039;-91
2022/12/30 09:15:55;;;;;;;18.83;12.48;;;;;;;13.52;47.49;93556.22;4938640;29;20036;-90
2022/12/30 09:18:20;;;;;;;19.00;12.35;;;;;;;13.50;47.35;93574.22;4905400;29;20039;-89
2022/12/30 09:20:46;;;;;;;18.13;13.50;;;;;;;13.54;47.41;93563.91;4923890;29;20055;-89
2022/12/30 09:23:11;;;;;;;17.58;12.65;;;;;;;13.52;47.13;93566.34;4939850;28;20043;-88
2022/12/30 09:25:37;;;;;;;18.35;12.00;;;;;;;13.54;47.76;93555.75;4903102;29;20102;-92
2022/12/30 09:28:02;;;;;;;19.67;12.68;;;;;;;13.52;47.56;93553.50;4929216;29;20039;-92
2022/12/30 09:30:27;;;;;;;16.50;12.45;;;;;;;13.51;47.56;93546.59;4937455;29;20058;-89
2022/12/30 09:32:53;;;;;;;18.50;13.00;;;;;;;13.51;47.38;93541.16;4954080;28;20050;-90
2022/12/30 09:35:18;;;;;;;17.38;12.55;;;;;;;13.53;47.52;93543.41;4917034;28;20377;-92
2022/12/30 09:37:45;;;;;;;22.65;13.07;;;;;;;13.54;47.58;93532.06;4952891;28;20509;-92
2022/12/30 09:40:14;;;;;;;22.02;13.60;;;;;;;13.54;47.72;93523.91;4924731;28;20044;-92
2022/12/30 09:45:29;;;;;;;14.93;11.88;;;;;;;13.58;47.04;93521.75;4920167;28;20055;-87
2022/12/30 09:47:56;;;;;;;18.38;12.45;;;;;;;13.62;47.15;93516.13;4955465;28;20126;-89
2022/12/30 09:50:25;;;;;;;19.08;12.77;;;;;;;13.61;47.40;93511.91;4937944;28;20063;-88
2022/12/30 09:53:04;;;;;;;17.00;12.63;;;;;;;13.61;47.22;93520.06;4952343;28;20098;-90
2022/12/30 09:55:31;;;;;;;19.45;12.55;;;;;;;13.60;47.07;93515.84;4905515;29;20486;-92
2022/12/30 09:58:00;;;;;;;15.90;11.20;;;;;;;13.59;47.03;93511.63;4900319;28;20493;-90
2022/12/30 10:00:26;;;;;;;18.75;12.75;;;;;;;13.46;47.56;93519.34;4899912;28;20043;-91
2022/12/30 10:03:11;;;;;;;26.02;12.60;;;;;;;13.55;47.30;93511.09;4958369;28;20122;-91
2022/12/30 10:05:58;;;;;;;16.05;11.95;;;;;;;13.51;47.34;93500.44;4919140;29;20071;-89
2022/12/30 10:08:49;;;;;;;23.77;12.77;;;;;;;13.55;47.46;93494.78;4947242;28;20572;-90
2022/12/30 10:11:27;;;;;;;22.20;12.65;;;;;;;13.55;47.66;93490.09;4931856;28;20526;-91
2022/12/30 10:14:10;;;;;;;17.55;11.98;;;;;;;13.56;47.45;93490.84;4922584;29;20046;-89
2022/12/30 10:16:52;;;;;;;17.83;12.48;;;;;;;13.58;47.53;93488.41;4959499;28;20113;-91
2022/12/30 10:19:43;;;;;;;16.73;12.63;;;;;;;13.59;47.71;93487.94;4933309;28;20050;-90
2022/12/30 10:22:28;;;;;;;;;;;;;;;13.64;47.50;93484.50;4950525;28;20043;-89
2022/12/30 10:25:19;;;;;;;18.98;13.75;;;;;;;13.62;47.54;93491.66;4919583;29;20336;-88
2022/12/30 10:27:47;;;;;;;19.45;13.43;;;;;;;13.61;47.62;93487.47;4935220;29;20127;-88
2022/12/30 10:30:14;;;;;;;19.55;14.13;;;;;;;13.58;47.70;93480.25;4927855;28;20044;-92
2022/12/30 10:32:39;;;;;;;21.67;13.48;;;;;;;13.60;47.33;93480.53;4940250;29;20356;-91
2022/12/30 10:35:14;;;;;;;19.42;13.27;;;;;;;13.59;47.30;93479.78;4902256;28;20070;-90
2022/12/30 10:37:40;;;;;;;23.55;14.35;;;;;;;13.59;47.54;93473.59;4906359;29;20032;-90
2022/12/30 10:40:09;;;;;;;19.25;13.35;;;;;;;13.60;47.74;93472.38;4923930;28;20070;-88
2022/12/30 10:42:55;;;;;;;17.40;12.93;;;;;;;13.61;47.53;93461.03;4935736;29;20409;-89
2022/12/30 10:45:23;;;;;;;23.75;13.95;;;;;;;13.59;47.43;93449.91;4950508;28;20062;-89
2022/12/30 10:47:52;;;;;;;23.02;13.55;;;;;;;13.61;47.42;93449.44;4973300;28;20053;-90
2022/12/30 10:50:36;;;;;;;24.90;14.65;;;;;;;13.63;47.35;93444.28;4952188;28;20501;-88
2022/12/30 10:53:02;;;;;;;19.80;13.75;;;;;;;13.62;47.63;93448.94;4948208;28;20048;-87
2022/12/30 10:55:29;;;;;;;24.35;13.40;;;;;;;13.61;47.67;93444.00;4936119;28;20150;-92
2022/12/30 10:58:04;;;;;;;18.83;13.10;;;;;;;13.62;47.49;93440.81;4950867;29;20044;-94
2022/12/30 11:00:32;;;;;;;20.88;13.57;;;;;;;13.61;47.72;93438.56;4933601;28;20152;-89
2022/12/30 11:03:00;;;;;;;20.25;13.68;;;;;;;13.62;47.53;93426.47;4960113;28;20094;-89
2022/12/30 11:05:30;;;;;;;20.13;13.88;;;;;;;13.63;47.40;93438.84;4952578;28;20062;-88
2022/12/30 11:07:56;;;;;;;19.75;13.85;;;;;;;13.63;47.49;93433.41;4970529;28;20043;-89
2022/12/30 11:10:21;;;;;;;21.33;13.35;;;;;;;13.61;47.22;93433.13;4954290;28;20098;-91
2022/12/30 11:15:49;;;;;;;19.63;13.05;;;;;;;13.65;47.49;93437.09;4951425;28;20149;-93
2022/12/30 11:18:15;;;;;;;18.52;13.25;;;;;;;13.65;47.68;93436.38;4951584;28;20561;-91
2022/12/30 11:20:41;;;;;;;19.73;13.18;;;;;;;13.65;47.73;93428.22;4966631;28;20042;-93
2022/12/30 11:23:22;;;;;;;17.55;13.15;;;;;;;13.64;47.51;93438.34;4954582;28;20042;-90
2022/12/30 11:25:48;;;;;;;18.83;12.75;;;;;;;13.62;47.47;93429.94;4949106;28;20065;-93
2022/12/30 11:28:25;;;;;;;18.08;13.20;;;;;;;13.63;47.67;93428.72;4950059;28;20493;-91
2022/12/30 11:30:50;;;;;;;19.23;13.80;;;;;;;13.62;47.41;93429.19;4954021;28;20069;-90
2022/12/30 11:33:24;;;;;;;17.23;12.60;;;;;;;13.66;47.52;93418.84;4969257;28;20110;-88
2022/12/30 11:35:49;;;;;;;17.58;12.85;;;;;;;13.65;47.07;93415.38;4969491;28;20110;-88
2022/12/30 11:38:34;;;;;;;20.15;12.88;;;;;;;13.65;47.11;93415.38;4969222;28;20101;-89
2022/12/30 11:41:18;;;;;;;18.20;13.30;;;;;;;13.65;47.25;93412.66;4954597;28;20046;-89
2022/12/30 11:43:46;;;;;;;20.08;13.18;;;;;;;13.66;47.84;93411.44;4969603;28;20090;-89
2022/12/30 11:46:13;;;;;;;17.38;13.05;;;;;;;13.64;47.53;93419.31;4969271;28;20054;-88
2022/12/30 11:48:44;;;;;;;20.85;13.52;;;;;;;13.62;47.86;93419.06;4952938;28;20377;-89
2022/12/30 11:51:26;;;;;;;22.33;14.35;;;;;;;13.65;47.26;93420.81;4932349;28;20054;-88
2022/12/30 11:54:10;;;;;;;16.05;12.18;;;;;;;13.65;47.46;93415.38;4937474;28;20031;-89
2022/12/30 11:56:37;;;;;;;16.58;12.43;;;;;;;13.64;47.52;93411.16;4965979;28;20031;-88
2022/12/30 11:59:09;;;;;;;19.40;13.32;;;;;;;13.64;47.75;93402.31;4953056;28;20073;-87
2022/12/30 12:01:42;;;;;;;16.63;12.73;;;;;;;13.63;47.49;93392.66;4911498;28;20043;-89
2022/12/30 12:04:08;;;;;;;18.92;13.13;;;;;;;13.64;47.88;93384.00;4952136;28;20038;-89
2022/12/30 12:06:49;;;;;;;17.83;13.32;;;;;;;13.66;47.58;93378.84;4952418;28;20093;-89
2022/12/30 12:09:14;;;;;;;;;;;;;;;13.70;47.41;93365.06;4952717;28;20039;-90
2022/12/30 12:11:42;;;;;;;18.05;12.65;;;;;;;13.65;47.41;93357.59;4968145;28;20060;-89
2022/12/30 12:14:13;;;;;;;18.60;12.65;;;;;;;13.62;47.41;93359.31;4936345;28;20587;-89
2022/12/30 12:16:42;;;;;;;;;;;;;;;13.67;47.48;93353.16;4971014;28;20047;-89
2022/12/30 12:19:14;;;;;;;16.00;12.65;;;;;;;13.61;47.90;93343.50;4967925;28;20116;-90
2022/12/30 12:21:39;;;;;;;17.50;12.75;;;;;;;13.63;47.67;93341.81;4952090;28;20403;-92
2022/12/30 12:24:19;;;;;;;17.50;13.13;;;;;;;13.63;47.77;93338.34;4952650;28;20047;-89